createdAt,value
2018-09-06T00:01:36.368Z,16.67
2018-09-06T00:04:04.821Z,15.77
2018-09-06T00:06:33.233Z,18.83
2018-09-06T00:09:04.864Z,15.63
2018-09-06T00:11:33.287Z,16.33
2018-09-06T00:14:01.733Z,16.12
2018-09-06T00:16:30.191Z,16.23
2018-09-06T00:18:58.603Z,16.77
2018-09-06T00:21:26.952Z,21.00
2018-09-06T00:23:55.351Z,20.93
2018-09-06T00:26:24.547Z,20.20
2018-09-06T00:28:52.982Z,19.33
2018-09-06T00:31:21.404Z,19.42
2018-09-06T00:33:49.794Z,20.25
2018-09-06T00:36:18.201Z,20.33
2018-09-06T00:38:46.592Z,19.42
2018-09-06T00:41:17.225Z,23.42
2018-09-06T00:43:45.928Z,17.30
2018-09-06T00:46:14.412Z,14.10
2018-09-06T00:48:42.823Z,16.48
2018-09-06T00:51:11.304Z,20.03
2018-09-06T00:53:39.753Z,15.07
2018-09-06T00:56:08.131Z,13.67
2018-09-06T00:58:36.527Z,18.60
2018-09-06T01:01:04.944Z,17.33
2018-09-06T01:03:33.361Z,17.23
2018-09-06T01:06:01.747Z,16.70
2018-09-06T01:08:30.225Z,18.00
2018-09-06T01:10:58.680Z,17.65
2018-09-06T01:13:27.086Z,18.70
2018-09-06T01:15:55.451Z,21.60
2018-09-06T01:18:24.757Z,16.70
2018-09-06T01:20:53.230Z,20.77
2018-09-06T01:23:21.586Z,17.70
2018-09-06T01:25:49.992Z,16.83
2018-09-06T01:28:19.884Z,15.80
2018-09-06T01:30:48.428Z,20.97
2018-09-06T01:33:16.856Z,17.03
2018-09-06T01:35:51.488Z,16.67
2018-09-06T01:38:31.050Z,15.53
2018-09-06T01:41:00.633Z,17.60
2018-09-06T01:43:29.140Z,15.90
2018-09-06T01:45:57.580Z,17.87
2018-09-06T01:48:25.976Z,14.50
2018-09-06T01:50:54.347Z,15.30
2018-09-06T01:53:22.784Z,17.50
2018-09-06T01:55:51.199Z,16.93
2018-09-06T01:58:19.616Z,17.47
2018-09-06T02:00:47.973Z,15.60
2018-09-06T02:03:16.474Z,15.80
2018-09-06T02:05:44.883Z,15.37
2018-09-06T02:08:13.284Z,17.50
2018-09-06T02:10:41.660Z,16.90
2018-09-06T02:13:10.057Z,15.77
2018-09-06T02:15:38.451Z,16.23
2018-09-06T02:18:06.831Z,16.73
2018-09-06T02:20:35.317Z,16.02
2018-09-06T02:23:03.726Z,17.20
2018-09-06T02:25:32.207Z,19.60
2018-09-06T02:28:00.679Z,20.35
2018-09-06T02:30:29.141Z,18.48
2018-09-06T02:32:57.665Z,19.57
2018-09-06T02:35:26.039Z,19.70
2018-09-06T02:37:54.395Z,22.10
2018-09-06T02:40:28.267Z,17.43
2018-09-06T02:42:57.301Z,16.20
2018-09-06T02:45:25.723Z,18.40
2018-09-06T02:47:54.492Z,17.07
2018-09-06T02:50:28.168Z,16.95
2018-09-06T02:52:57.115Z,16.17
2018-09-06T02:55:26.951Z,20.23
2018-09-06T02:57:55.352Z,18.07
2018-09-06T03:00:30.194Z,20.10
2018-09-06T03:02:58.733Z,20.25
2018-09-06T03:05:27.643Z,19.40
2018-09-06T03:07:57.154Z,21.70
2018-09-06T03:10:28.903Z,18.80
2018-09-06T03:12:57.446Z,17.07
2018-09-06T03:15:25.896Z,17.00
2018-09-06T03:17:54.215Z,19.30
2018-09-06T03:20:22.619Z,17.25
2018-09-06T03:22:51.080Z,17.43
2018-09-06T03:25:19.505Z,18.60
2018-09-06T03:27:48.010Z,16.77
2018-09-06T03:30:16.421Z,21.07
2018-09-06T03:32:44.781Z,16.33
2018-09-06T03:35:13.191Z,16.67
2018-09-06T03:37:41.620Z,16.93
2018-09-06T03:40:10.062Z,19.43
2018-09-06T03:42:38.485Z,19.83
2018-09-06T03:45:06.979Z,19.50
2018-09-06T03:47:35.400Z,22.20
2018-09-06T03:50:03.850Z,19.63
2018-09-06T03:52:32.226Z,20.13
2018-09-06T03:55:00.659Z,20.50
2018-09-06T03:57:29.089Z,19.00
2018-09-06T03:59:57.594Z,19.47
2018-09-06T04:02:25.983Z,23.73
2018-09-06T04:04:54.373Z,20.30
2018-09-06T04:07:22.796Z,22.63
2018-09-06T04:09:51.195Z,21.47
2018-09-06T04:12:19.593Z,19.07
2018-09-06T04:14:47.968Z,21.03
2018-09-06T04:17:16.423Z,21.47
2018-09-06T04:19:44.832Z,21.60
2018-09-06T04:22:13.255Z,21.10
2018-09-06T04:24:42.132Z,24.30
2018-09-06T04:27:32.409Z,22.87
2018-09-06T04:30:00.783Z,22.10
2018-09-06T04:32:29.221Z,30.10
2018-09-06T04:34:57.579Z,25.40
2018-09-06T04:37:31.327Z,29.03
2018-09-06T04:40:00.186Z,26.30
2018-09-06T04:42:28.620Z,25.33
2018-09-06T04:44:57.032Z,18.93
2018-09-06T04:47:40.186Z,24.63
2018-09-06T04:50:08.606Z,25.00
2018-09-06T04:52:37.326Z,27.30
2018-09-06T04:55:05.843Z,21.03
2018-09-06T04:57:34.326Z,20.50
2018-09-06T05:00:02.819Z,20.05
2018-09-06T05:02:31.272Z,21.37
2018-09-06T05:04:59.655Z,21.10
2018-09-06T05:07:28.150Z,21.70
2018-09-06T05:09:56.594Z,19.97
2018-09-06T05:12:25.030Z,22.13
2018-09-06T05:14:54.621Z,19.23
2018-09-06T05:17:23.094Z,21.20
2018-09-06T05:19:51.547Z,20.15
2018-09-06T05:22:19.998Z,23.98
2018-09-06T05:24:49.636Z,20.70
2018-09-06T05:27:18.460Z,25.30
2018-09-06T05:29:46.848Z,19.90
2018-09-06T05:32:15.331Z,19.23
2018-09-06T05:34:44.554Z,20.00
2018-09-06T05:37:13.246Z,21.73
2018-09-06T05:39:43.165Z,21.75
2018-09-06T05:42:11.787Z,18.27
2018-09-06T05:44:53.859Z,19.37
2018-09-06T05:47:22.400Z,19.00
2018-09-06T05:49:50.761Z,21.90
2018-09-06T05:52:19.158Z,20.87
2018-09-06T05:54:47.573Z,19.57
2018-09-06T05:57:15.976Z,21.63
2018-09-06T05:59:44.451Z,25.03
2018-09-06T06:02:12.790Z,23.42
2018-09-06T06:04:41.197Z,20.73
2018-09-06T06:07:09.937Z,20.92
2018-09-06T06:09:38.372Z,20.35
2018-09-06T06:12:06.743Z,19.70
2018-09-06T06:14:35.498Z,18.30
2018-09-06T06:17:03.908Z,21.90
2018-09-06T06:19:32.351Z,19.20
2018-09-06T06:22:00.781Z,20.75
2018-09-06T06:24:29.124Z,19.73
2018-09-06T06:26:57.577Z,19.50
2018-09-06T06:29:25.980Z,19.90
2018-09-06T06:31:54.932Z,21.33
2018-09-06T06:34:23.458Z,19.90
2018-09-06T06:36:51.857Z,19.17
2018-09-06T06:39:20.956Z,20.68
2018-09-06T06:41:49.377Z,18.75
2018-09-06T06:44:17.995Z,18.60
2018-09-06T06:46:46.371Z,20.50
2018-09-06T06:49:14.754Z,17.70
2018-09-06T06:51:43.642Z,17.80
2018-09-06T06:54:21.371Z,20.00
2018-09-06T06:56:49.747Z,19.17
2018-09-06T06:59:18.138Z,21.77
2018-09-06T07:01:47.803Z,19.13
2018-09-06T07:04:16.254Z,19.03
2018-09-06T07:06:44.629Z,17.55
2018-09-06T07:09:13.032Z,17.87
2018-09-06T07:11:41.380Z,17.82
2018-09-06T07:14:10.601Z,15.40
2018-09-06T07:16:39.018Z,18.80
2018-09-06T07:19:07.437Z,18.03
2018-09-06T07:21:38.577Z,17.60
2018-09-06T07:24:07.009Z,15.98
2018-09-06T07:26:35.384Z,19.37
2018-09-06T07:29:03.788Z,17.87
2018-09-06T07:31:32.421Z,17.73
2018-09-06T07:34:01.057Z,23.90
2018-09-06T07:36:30.385Z,18.23
2018-09-06T07:38:58.802Z,15.90
2018-09-06T07:41:27.295Z,20.77
2018-09-06T07:43:55.625Z,17.65
2018-09-06T07:46:24.029Z,18.47
2018-09-06T07:48:52.668Z,23.00
2018-09-06T07:51:21.084Z,20.12
2018-09-06T07:53:49.472Z,20.80
2018-09-06T07:56:17.916Z,20.50
2018-09-06T07:58:46.260Z,16.70
2018-09-06T08:01:14.677Z,19.60
2018-09-06T08:03:43.086Z,16.57
2018-09-06T08:06:11.491Z,16.67
2018-09-06T08:08:39.880Z,17.57
2018-09-06T08:11:08.309Z,16.00
2018-09-06T08:13:36.693Z,16.00
2018-09-06T08:16:05.112Z,19.17
2018-09-06T08:18:33.585Z,20.60
2018-09-06T08:21:02.063Z,20.17
2018-09-06T08:23:30.515Z,19.83
2018-09-06T08:25:59.582Z,19.73
2018-09-06T08:28:27.985Z,20.03
2018-09-06T08:30:56.552Z,19.40
2018-09-06T08:33:24.833Z,20.08
2018-09-06T08:35:53.250Z,23.07
2018-09-06T08:38:21.668Z,22.57
2018-09-06T08:40:50.053Z,21.47
2018-09-06T08:43:18.425Z,22.45
2018-09-06T08:45:46.871Z,28.03
2018-09-06T08:48:15.352Z,20.45
2018-09-06T08:50:43.734Z,22.00
2018-09-06T08:53:12.338Z,21.17
2018-09-06T08:55:40.805Z,21.17
2018-09-06T08:58:10.246Z,19.97
2018-09-06T09:00:41.637Z,21.73
2018-09-06T09:03:11.744Z,22.07
2018-09-06T09:05:40.298Z,20.70
2018-09-06T09:08:08.703Z,20.13
2018-09-06T09:10:37.445Z,20.10
2018-09-06T09:13:06.286Z,20.10
2018-09-06T09:15:34.643Z,23.80
2018-09-06T09:18:04.285Z,20.20
2018-09-06T09:20:33.164Z,19.25
2018-09-06T09:23:01.946Z,22.10
2018-09-06T09:25:30.409Z,19.13
2018-09-06T09:27:59.019Z,18.75
2018-09-06T09:30:27.635Z,22.62
2018-09-06T09:32:56.037Z,21.33
2018-09-06T09:35:24.461Z,21.17
2018-09-06T09:37:52.961Z,23.47
2018-09-06T09:40:21.399Z,24.90
2018-09-06T09:42:49.780Z,22.30
2018-09-06T09:45:18.264Z,20.93
2018-09-06T09:47:46.737Z,25.17
2018-09-06T09:52:42.705Z,21.07
2018-09-06T09:55:11.106Z,20.75
2018-09-06T09:57:39.538Z,24.30
2018-09-06T10:00:07.984Z,20.20
2018-09-06T10:02:41.797Z,23.73
2018-09-06T10:05:15.666Z,21.33
2018-09-06T10:07:49.386Z,21.68
2018-09-06T10:10:18.627Z,20.75
2018-09-06T10:12:47.051Z,18.40
2018-09-06T10:15:15.560Z,20.40
2018-09-06T10:17:43.936Z,20.93
2018-09-06T10:20:12.301Z,22.97
2018-09-06T10:22:40.738Z,21.77
2018-09-06T10:25:09.165Z,18.03
2018-09-06T10:27:37.668Z,23.33
2018-09-06T10:30:06.080Z,19.47
2018-09-06T10:32:35.129Z,21.25
2018-09-06T10:35:03.552Z,23.32
2018-09-06T10:37:32.733Z,25.47
2018-09-06T10:40:01.181Z,20.03
2018-09-06T10:42:29.603Z,24.43
2018-09-06T10:44:58.034Z,21.20
2018-09-06T10:47:26.509Z,20.07
2018-09-06T10:49:54.998Z,19.85
2018-09-06T10:52:23.696Z,21.77
2018-09-06T10:54:52.089Z,20.47
2018-09-06T10:57:20.527Z,17.70
2018-09-06T10:59:48.996Z,22.13
2018-09-06T11:02:17.452Z,22.20
2018-09-06T11:04:45.975Z,19.47
2018-09-06T11:07:14.383Z,22.98
2018-09-06T11:09:42.780Z,21.82
2018-09-06T11:12:11.176Z,17.83
2018-09-06T11:14:39.599Z,26.60
2018-09-06T11:17:08.163Z,20.32
2018-09-06T11:19:36.737Z,22.67
2018-09-06T11:22:05.364Z,21.70
2018-09-06T11:24:33.650Z,23.70
2018-09-06T11:27:02.110Z,20.37
2018-09-06T11:29:30.533Z,21.48
2018-09-06T11:31:59.649Z,24.87
2018-09-06T11:34:28.089Z,21.50
2018-09-06T11:36:56.494Z,24.40
2018-09-06T11:39:25.032Z,20.53
2018-09-06T11:41:53.463Z,21.07
2018-09-06T11:44:21.843Z,19.15
2018-09-06T11:46:50.308Z,17.10
2018-09-06T11:49:18.741Z,18.60
2018-09-06T11:51:47.270Z,19.67
2018-09-06T11:54:15.648Z,16.20
2018-09-06T11:56:44.074Z,14.67
2018-09-06T11:59:12.496Z,14.10
2018-09-06T12:01:40.925Z,14.50
2018-09-06T12:04:09.573Z,14.53
2018-09-06T12:06:38.041Z,14.03
2018-09-06T12:09:06.872Z,15.20
2018-09-06T12:11:36.140Z,15.30
2018-09-06T12:14:04.621Z,15.47
2018-09-06T12:16:33.160Z,17.43
2018-09-06T12:19:02.418Z,21.40
2018-09-06T12:21:30.994Z,17.60
2018-09-06T12:24:00.243Z,21.73
2018-09-06T12:26:28.968Z,19.80
2018-09-06T12:28:57.389Z,16.85
2018-09-06T12:31:25.851Z,17.43
2018-09-06T12:33:54.375Z,16.90
2018-09-06T12:36:22.812Z,17.60
2018-09-06T12:38:51.488Z,17.07
2018-09-06T12:41:19.964Z,23.10
2018-09-06T12:43:48.407Z,14.35
2018-09-06T12:46:16.827Z,14.63
2018-09-06T12:48:45.341Z,14.70
2018-09-06T12:51:13.725Z,15.10
2018-09-06T12:53:42.185Z,16.97
2018-09-06T12:56:10.581Z,16.50
2018-09-06T12:58:39.012Z,14.53
2018-09-06T13:01:07.544Z,14.70
2018-09-06T13:03:35.981Z,15.90
2018-09-06T13:06:04.428Z,18.27
2018-09-06T13:08:32.807Z,14.78
2018-09-06T13:11:01.229Z,17.40
2018-09-06T13:13:30.553Z,19.00
2018-09-06T13:15:58.964Z,17.10
2018-09-06T13:18:27.437Z,15.83
2018-09-06T13:20:55.824Z,13.78
2018-09-06T13:23:24.182Z,17.20
2018-09-06T13:25:52.646Z,16.35
2018-09-06T13:28:21.488Z,17.92
2018-09-06T13:30:49.985Z,15.37
2018-09-06T13:33:18.413Z,14.57
2018-09-06T13:35:46.795Z,17.37
2018-09-06T13:38:15.242Z,14.60
2018-09-06T13:40:43.685Z,13.27
2018-09-06T13:43:12.062Z,11.97
2018-09-06T13:45:40.440Z,11.08
2018-09-06T13:48:08.880Z,11.00
2018-09-06T13:50:37.323Z,10.10
2018-09-06T13:53:05.773Z,10.43
2018-09-06T13:55:34.155Z,13.00
2018-09-06T13:58:02.564Z,11.90
2018-09-06T14:00:31.976Z,11.63
2018-09-06T14:03:00.346Z,11.43
2018-09-06T14:05:28.762Z,12.83
2018-09-06T14:08:04.553Z,13.00
2018-09-06T14:10:32.956Z,15.30
2018-09-06T14:13:01.384Z,12.45
2018-09-06T14:15:29.872Z,11.70
2018-09-06T14:17:58.258Z,12.95
2018-09-06T14:20:26.739Z,15.23
2018-09-06T14:22:55.107Z,14.98
2018-09-06T14:25:23.570Z,19.37
2018-09-06T14:27:51.997Z,15.73
2018-09-06T14:30:20.350Z,13.35
2018-09-06T14:32:49.682Z,14.30
2018-09-06T14:35:18.183Z,15.07
2018-09-06T14:37:46.606Z,19.53
2018-09-06T14:40:15.038Z,15.97
2018-09-06T14:42:43.483Z,14.27
2018-09-06T14:45:11.944Z,13.23
2018-09-06T14:47:40.418Z,14.47
2018-09-06T14:50:08.818Z,12.97
2018-09-06T14:52:37.289Z,15.90
2018-09-06T14:55:05.717Z,14.90
2018-09-06T14:57:34.125Z,13.83
2018-09-06T15:00:02.604Z,16.13
2018-09-06T15:02:31.025Z,18.33
2018-09-06T15:04:59.457Z,14.27
2018-09-06T15:07:28.810Z,13.73
2018-09-06T15:09:57.222Z,14.23
2018-09-06T15:12:25.823Z,14.83
2018-09-06T15:14:54.288Z,14.93
2018-09-06T15:17:22.699Z,14.80
2018-09-06T15:19:51.259Z,15.93
2018-09-06T15:22:19.717Z,15.13
2018-09-06T15:24:48.199Z,17.70
2018-09-06T15:27:16.672Z,17.80
2018-09-06T15:29:45.123Z,13.87
2018-09-06T15:32:13.492Z,15.90
2018-09-06T15:34:41.941Z,16.13
2018-09-06T15:37:10.329Z,19.80
2018-09-06T15:39:38.770Z,14.65
2018-09-06T15:42:07.776Z,16.82
2018-09-06T15:44:36.345Z,16.43
2018-09-06T15:47:04.809Z,13.68
2018-09-06T15:49:33.321Z,16.20
2018-09-06T15:52:01.688Z,12.15
2018-09-06T15:54:30.116Z,16.67
2018-09-06T15:56:58.530Z,14.93
2018-09-06T15:59:26.960Z,16.47
2018-09-06T16:01:55.437Z,14.27
2018-09-06T16:04:23.825Z,13.83
2018-09-06T16:06:52.257Z,14.18
2018-09-06T16:09:20.702Z,15.63
2018-09-06T16:11:49.116Z,17.27
2018-09-06T16:14:17.570Z,15.17
2018-09-06T16:16:46.777Z,17.62
2018-09-06T16:19:15.177Z,19.07
2018-09-06T16:21:43.621Z,14.57
2018-09-06T16:24:12.091Z,17.80
2018-09-06T16:26:40.443Z,13.27
2018-09-06T16:29:08.832Z,14.53
2018-09-06T16:31:37.253Z,14.90
2018-09-06T16:34:09.172Z,12.68
2018-09-06T16:36:37.675Z,14.05
2018-09-06T16:39:07.451Z,13.40
2018-09-06T16:41:35.840Z,21.95
2018-09-06T16:44:04.802Z,14.07
2018-09-06T16:46:33.220Z,18.23
2018-09-06T16:49:01.693Z,15.50
2018-09-06T16:51:30.111Z,15.43
2018-09-06T16:53:58.531Z,15.80
2018-09-06T16:56:26.980Z,16.33
2018-09-06T16:58:55.371Z,14.30
2018-09-06T17:01:23.774Z,17.70
2018-09-06T17:03:53.066Z,16.60
2018-09-06T17:06:21.651Z,17.77
2018-09-06T17:08:50.294Z,14.30
2018-09-06T17:11:18.734Z,14.57
2018-09-06T17:13:47.175Z,17.90
2018-09-06T17:16:15.604Z,13.93
2018-09-06T17:18:44.059Z,15.70
2018-09-06T17:21:12.521Z,13.93
2018-09-06T17:23:40.984Z,16.65
2018-09-06T17:26:09.513Z,15.68
2018-09-06T17:28:37.909Z,15.43
2018-09-06T17:31:06.816Z,15.50
2018-09-06T17:33:35.216Z,13.20
2018-09-06T17:36:03.673Z,15.08
2018-09-06T17:38:32.147Z,13.90
2018-09-06T17:41:01.292Z,16.37
2018-09-06T17:43:29.709Z,15.65
2018-09-06T17:45:58.161Z,16.17
2018-09-06T17:48:26.681Z,14.87
2018-09-06T17:50:55.198Z,15.90
2018-09-06T17:53:23.669Z,15.10
2018-09-06T17:55:52.145Z,14.90
2018-09-06T17:58:20.588Z,13.77
2018-09-06T18:01:02.781Z,13.20
2018-09-06T18:03:31.278Z,13.35
2018-09-06T18:05:59.718Z,15.47
2018-09-06T18:08:28.207Z,14.27
2018-09-06T18:10:56.720Z,13.55
2018-09-06T18:13:25.130Z,13.28
2018-09-06T18:15:53.586Z,13.07
2018-09-06T18:18:22.043Z,15.13
2018-09-06T18:20:50.485Z,17.42
2018-09-06T18:23:18.958Z,12.57
2018-09-06T18:25:47.424Z,13.70
2018-09-06T18:28:15.820Z,13.37
2018-09-06T18:30:44.298Z,13.40
2018-09-06T18:33:12.751Z,13.67
2018-09-06T18:35:41.268Z,13.10
2018-09-06T18:38:09.680Z,13.73
2018-09-06T18:40:38.180Z,12.07
2018-09-06T18:43:06.748Z,12.85
2018-09-06T18:45:35.268Z,18.52
2018-09-06T18:48:04.609Z,13.13
2018-09-06T18:50:33.125Z,18.40
2018-09-06T18:53:01.594Z,14.20
2018-09-06T18:55:30.101Z,14.18
2018-09-06T18:57:58.644Z,14.47
2018-09-06T19:00:27.031Z,13.70
2018-09-06T19:02:55.470Z,14.28
2018-09-06T19:05:23.879Z,13.93
2018-09-06T19:07:52.315Z,17.02
2018-09-06T19:10:20.773Z,13.43
2018-09-06T19:12:49.759Z,13.43
2018-09-06T19:15:18.229Z,15.07
2018-09-06T19:17:46.647Z,14.07
2018-09-06T19:20:15.108Z,13.15
2018-09-06T19:22:43.613Z,14.00
2018-09-06T19:25:12.232Z,16.53
2018-09-06T19:27:40.623Z,13.57
2018-09-06T19:30:09.161Z,15.70
2018-09-06T19:32:37.671Z,15.00
2018-09-06T19:35:06.192Z,23.33
2018-09-06T19:37:34.589Z,14.35
2018-09-06T19:40:03.652Z,16.17
2018-09-06T19:42:32.476Z,15.40
2018-09-06T19:45:00.954Z,13.97
2018-09-06T19:47:29.476Z,18.42
2018-09-06T19:49:57.910Z,14.40
2018-09-06T19:52:26.372Z,14.63
2018-09-06T19:54:54.880Z,15.32
2018-09-06T19:57:23.741Z,14.75
2018-09-06T19:59:54.122Z,15.87
2018-09-06T20:02:26.674Z,13.80
2018-09-06T20:04:55.943Z,15.07
2018-09-06T20:07:24.536Z,19.48
2018-09-06T20:09:53.061Z,16.23
2018-09-06T20:12:41.114Z,16.67
2018-09-06T20:15:21.173Z,17.17
2018-09-06T20:17:49.979Z,17.98
2018-09-06T20:20:22.002Z,18.20
2018-09-06T20:22:50.496Z,21.53
2018-09-06T20:25:18.968Z,17.55
2018-09-06T20:27:47.430Z,20.50
2018-09-06T20:30:15.952Z,20.50
2018-09-06T20:32:46.118Z,19.40
2018-09-06T20:35:14.659Z,20.10
2018-09-06T20:37:44.514Z,21.67
2018-09-06T20:40:12.994Z,26.40
2018-09-06T20:42:41.441Z,20.90
2018-09-06T20:45:09.888Z,24.10
2018-09-06T20:47:42.277Z,25.65
2018-09-06T20:50:10.680Z,31.12
2018-09-06T20:52:39.119Z,31.60
2018-09-06T20:55:07.504Z,30.32
2018-09-06T20:57:35.896Z,31.00
2018-09-06T21:00:04.477Z,32.13
2018-09-06T21:02:39.768Z,31.10
2018-09-06T21:05:11.487Z,35.83
2018-09-06T21:07:40.007Z,34.40
2018-09-06T21:10:08.404Z,36.60
2018-09-06T21:12:36.852Z,34.60
2018-09-06T21:15:05.306Z,43.23
2018-09-06T21:17:34.370Z,42.48
2018-09-06T21:20:02.830Z,39.00
2018-09-06T21:22:31.282Z,39.13
2018-09-06T21:24:59.960Z,43.87
2018-09-06T21:27:28.444Z,40.92
2018-09-06T21:29:57.814Z,41.40
2018-09-06T21:32:26.324Z,43.98
2018-09-06T21:34:55.929Z,46.07
2018-09-06T21:37:24.267Z,40.87
2018-09-06T21:39:52.767Z,42.60
2018-09-06T21:42:21.093Z,44.00
2018-09-06T21:44:49.530Z,45.33
2018-09-06T21:47:17.924Z,40.63
2018-09-06T21:49:46.307Z,41.73
2018-09-06T21:52:14.789Z,43.47
2018-09-06T21:54:43.230Z,47.13
2018-09-06T21:57:11.645Z,46.70
2018-09-06T21:59:40.045Z,43.23
2018-09-06T22:02:12.697Z,37.60
2018-09-06T22:04:41.203Z,53.60
2018-09-06T22:07:09.625Z,47.88
2018-09-06T22:09:38.090Z,47.67
2018-09-06T22:12:11.307Z,44.67
2018-09-06T22:14:39.724Z,50.47
2018-09-06T22:17:08.150Z,53.13
2018-09-06T22:19:36.549Z,51.58
2018-09-06T22:22:04.929Z,54.30
2018-09-06T22:24:33.421Z,53.02
2018-09-06T22:27:01.853Z,48.92
2018-09-06T22:29:30.357Z,51.40
2018-09-06T22:31:58.909Z,49.50
2018-09-06T22:37:03.804Z,49.57
2018-09-06T22:39:32.321Z,57.30
2018-09-06T22:42:00.860Z,52.40
2018-09-06T22:44:29.444Z,54.73
2018-09-06T22:46:57.909Z,53.83
2018-09-06T22:49:26.292Z,55.80
2018-09-06T22:51:54.756Z,53.38
2018-09-06T22:54:23.203Z,55.30
2018-09-06T22:56:51.616Z,51.60
2018-09-06T22:59:19.984Z,54.57
2018-09-06T23:01:48.534Z,57.10
2018-09-06T23:04:16.929Z,53.13
2018-09-06T23:06:46.222Z,59.40
2018-09-06T23:09:14.633Z,52.83
2018-09-06T23:11:43.107Z,50.27
2018-09-06T23:14:11.550Z,55.43
2018-09-06T23:16:39.934Z,57.17
2018-09-06T23:19:08.459Z,58.10
2018-09-06T23:21:36.915Z,51.25
2018-09-06T23:24:05.344Z,54.25
2018-09-06T23:26:33.698Z,59.60
2018-09-06T23:29:02.290Z,56.60
2018-09-06T23:31:30.712Z,56.57
2018-09-06T23:33:59.077Z,55.87
2018-09-06T23:36:27.562Z,59.87
2018-09-06T23:38:56.020Z,56.57
2018-09-06T23:41:25.984Z,49.87
2018-09-06T23:43:54.383Z,53.80
2018-09-06T23:46:22.824Z,58.60
2018-09-06T23:48:51.236Z,61.18
2018-09-06T23:51:19.708Z,52.50
2018-09-06T23:53:48.113Z,56.20
2018-09-06T23:56:16.522Z,58.30
2018-09-06T23:58:44.916Z,53.30
